Time;durP1;ratioP1;P1;durP2;ratioP2;P2;SDS_P1;SDS_P2;PMS_P1;PMS_P2;Temp;Humidity;BMP_temperature;BMP_pressure;BME280_temperature;BME280_humidity;BME280_pressure;Samples;Min_cycle;Max_cycle;Signal;HPM_P1;HPM_P2
2022/12/13 00:00:12;;;;;;;2.78;2.17;;;;;;;-0.26;82.77;92702.28;5091610;28;20031;-34
2022/12/13 00:02:38;;;;;;;3.20;2.78;;;;;;;-0.25;83.19;92706.47;5091585;28;20028;-34
2022/12/13 00:05:03;;;;;;;2.40;1.77;;;;;;;-0.29;83.20;92708.72;5091506;28;20020;-34
2022/12/13 00:07:29;;;;;;;2.05;1.67;;;;;;;-0.31;82.79;92719.31;5090949;28;20032;-34
2022/12/13 00:09:54;;;;;;;2.08;1.90;;;;;;;-0.33;82.65;92726.47;5091598;28;20047;-34
2022/12/13 00:12:19;;;;;;;2.85;2.15;;;;;;;-0.39;82.53;92721.03;5085275;28;20028;-34
2022/12/13 00:14:45;;;;;;;2.75;2.35;;;;;;;-0.39;82.71;92729.19;5071068;28;20013;-34
2022/12/13 00:17:10;;;;;;;2.45;2.20;;;;;;;-0.39;82.24;92731.16;5070976;28;20039;-34
2022/12/13 00:19:36;;;;;;;2.15;1.85;;;;;;;-0.40;83.29;92741.28;5071029;28;20028;-34
2022/12/13 00:22:01;;;;;;;3.33;2.55;;;;;;;-0.46;83.24;92745.97;5071247;28;20020;-34
2022/12/13 00:24:27;;;;;;;2.78;2.08;;;;;;;-0.50;83.92;92755.59;5070911;28;20424;-34
2022/12/13 00:26:53;;;;;;;3.22;2.20;;;;;;;-0.46;84.70;92754.09;5088885;28;20417;-34
2022/12/13 00:29:19;;;;;;;5.80;3.40;;;;;;;-0.36;84.55;92760.75;5088725;28;20107;-34
2022/12/13 00:31:44;;;;;;;4.88;4.03;;;;;;;-0.37;84.84;92750.41;5071037;28;20089;-34
2022/12/13 00:34:09;;;;;;;6.85;5.25;;;;;;;-0.41;85.71;92752.63;5070892;28;20020;-34
2022/12/13 00:36:35;;;;;;;9.63;6.05;;;;;;;-0.43;86.23;92750.38;5070959;28;20028;-34
2022/12/13 00:39:00;;;;;;;7.47;5.85;;;;;;;-0.30;86.39;92747.91;5070712;28;20024;-34
2022/12/13 00:41:32;;;;;;;6.03;5.10;;;;;;;-0.20;86.23;92751.84;5075916;28;20023;-34
2022/12/13 00:43:58;;;;;;;9.80;5.72;;;;;;;-0.13;86.21;92753.31;5090606;28;20024;-34
2022/12/13 00:46:24;;;;;;;6.80;5.30;;;;;;;-0.03;85.42;92757.22;5091192;28;20032;-34
2022/12/13 00:48:51;;;;;;;11.95;7.80;;;;;;;0.02;85.25;92759.19;5091004;28;20016;-34
2022/12/13 00:51:17;;;;;;;12.65;7.53;;;;;;;0.10;85.04;92759.41;5090759;28;20024;-34
2022/12/13 00:53:43;;;;;;;9.02;5.45;;;;;;;0.04;85.08;92761.41;5090623;28;20009;-34
2022/12/13 00:56:11;;;;;;;5.25;3.33;;;;;;;0.01;83.34;92765.84;5090577;28;20034;-34
2022/12/13 00:58:37;;;;;;;5.00;2.95;;;;;;;-0.02;83.17;92764.84;5090617;28;20030;-34
2022/12/13 01:01:08;;;;;;;4.03;3.50;;;;;;;-0.07;82.92;92762.19;5090872;28;20024;-34
2022/12/13 01:03:33;;;;;;;3.95;3.35;;;;;;;-0.15;83.41;92775.50;5090780;28;20435;-34
2022/12/13 01:05:59;;;;;;;3.40;2.83;;;;;;;-0.18;83.88;92779.22;5090605;28;20024;-34
2022/12/13 01:08:25;;;;;;;4.53;3.97;;;;;;;-0.25;84.41;92771.56;5086021;28;20020;-34
2022/12/13 01:10:50;;;;;;;6.47;4.65;;;;;;;-0.23;85.08;92776.50;5070272;28;20024;-34
2022/12/13 01:13:16;;;;;;;5.07;3.22;;;;;;;-0.23;84.29;92774.53;5070249;28;20480;-34
2022/12/13 01:15:42;;;;;;;4.32;3.80;;;;;;;-0.36;83.38;92754.56;5070146;28;20578;-34
2022/12/13 01:18:08;;;;;;;5.43;4.57;;;;;;;-0.49;83.41;92760.50;5070121;28;20024;-34
2022/12/13 01:20:33;;;;;;;9.60;6.07;;;;;;;-0.43;83.95;92777.50;5052509;28;20082;-34
2022/12/13 01:22:59;;;;;;;13.70;8.98;;;;;;;-0.48;83.30;92770.13;5070333;28;20408;-34
2022/12/13 01:25:24;;;;;;;6.18;4.72;;;;;;;-0.49;84.19;92771.34;5075320;28;20458;-34
2022/12/13 01:27:50;;;;;;;10.32;6.18;;;;;;;-0.54;83.41;92772.09;5090221;28;20512;-34
2022/12/13 01:30:15;;;;;;;7.25;5.60;;;;;;;-0.64;82.78;92767.41;5080054;28;20455;-34
2022/12/13 01:32:41;;;;;;;8.30;6.07;;;;;;;-0.64;82.73;92778.25;5070041;28;20024;-34
2022/12/13 01:35:06;;;;;;;6.40;4.45;;;;;;;-0.71;83.24;92776.78;5070203;28;20024;-34
2022/12/13 01:37:32;;;;;;;7.75;5.13;;;;;;;-0.78;83.21;92780.00;5069962;28;20040;-34
2022/12/13 01:39:57;;;;;;;8.07;4.97;;;;;;;-0.73;83.34;92779.25;5070222;28;20039;-34
2022/12/13 01:42:23;;;;;;;5.68;3.92;;;;;;;-0.86;82.60;92784.41;5083578;28;20051;-34
2022/12/13 01:44:54;;;;;;;6.05;4.53;;;;;;;-0.87;81.80;92783.66;5090343;28;20507;-34
2022/12/13 01:47:46;;;;;;;7.82;5.80;;;;;;;-0.86;81.54;92787.09;5090177;28;20411;-34
2022/12/13 01:50:22;;;;;;;9.88;5.93;;;;;;;-0.93;81.87;92780.22;5067655;28;20036;-34
2022/12/13 01:52:48;;;;;;;7.13;4.85;;;;;;;-1.03;81.98;92775.53;5072374;28;20407;-34
2022/12/13 01:55:15;;;;;;;6.68;5.18;;;;;;;-1.09;82.38;92780.19;5072167;28;20020;-34
2022/12/13 01:57:43;;;;;;;6.03;4.57;;;;;;;-1.05;82.57;92777.97;5072269;28;20113;-34
2022/12/13 02:00:09;;;;;;;8.13;5.15;;;;;;;-1.13;82.64;92771.56;5071941;28;20024;-34
2022/12/13 02:02:35;;;;;;;7.88;5.07;;;;;;;-1.09;82.88;92766.66;5090263;28;20028;-34
2022/12/13 02:05:10;;;;;;;7.88;4.97;;;;;;;-1.00;82.32;92772.59;5089721;28;20569;-34
2022/12/13 02:07:36;;;;;;;6.47;4.30;;;;;;;-1.05;80.70;92767.88;5053420;28;20103;-34
2022/12/13 02:10:04;;;;;;;10.18;6.18;;;;;;;-1.09;80.67;92767.41;5051861;28;20034;-34
2022/12/13 02:12:32;;;;;;;6.53;4.40;;;;;;;-1.09;81.34;92769.34;5052090;28;20024;-34
2022/12/13 02:15:17;;;;;;;11.38;4.65;;;;;;;-1.13;81.58;92766.91;5069461;28;20501;-34
2022/12/13 02:17:56;;;;;;;13.75;7.15;;;;;;;-1.10;82.82;92767.88;5051030;28;20048;-34
2022/12/13 02:20:42;;;;;;;11.55;6.40;;;;;;;-1.16;83.69;92773.28;5051843;28;20027;-34
2022/12/13 02:23:24;;;;;;;14.23;7.32;;;;;;;-1.17;84.33;92782.63;5051752;28;20028;-34
2022/12/13 02:26:08;;;;;;;11.27;7.25;;;;;;;-1.03;85.17;92783.66;5038779;28;20118;-34
2022/12/13 02:28:45;;;;;;;18.60;9.30;;;;;;;-0.93;84.73;92784.88;5030023;28;20036;-34
2022/12/13 02:31:25;;;;;;;10.27;6.55;;;;;;;-0.91;84.38;92780.44;5047021;28;20036;-34
2022/12/13 02:33:59;;;;;;;12.95;6.88;;;;;;;-0.79;84.02;92781.22;5051876;28;20025;-34
2022/12/13 02:36:32;;;;;;;8.15;6.63;;;;;;;-0.79;83.48;92781.22;5053207;28;20036;-34
2022/12/13 02:39:22;;;;;;;9.00;6.50;;;;;;;-0.83;83.44;92788.84;5051774;28;20528;-34
2022/12/13 02:41:49;;;;;;;7.88;5.57;;;;;;;-0.86;83.03;92779.72;5051718;28;20013;-34
2022/12/13 02:44:20;;;;;;;11.95;7.50;;;;;;;-1.04;82.06;92779.47;5052925;28;20025;-34
2022/12/13 02:46:51;;;;;;;5.78;3.90;;;;;;;-1.05;81.85;92784.16;5051779;28;20564;-34
2022/12/13 02:49:18;;;;;;;9.38;4.97;;;;;;;-1.09;81.88;92794.47;5051931;28;20078;-34
2022/12/13 02:51:44;;;;;;;13.25;8.23;;;;;;;-1.21;81.49;92786.84;5051921;28;20027;-34
2022/12/13 02:54:09;;;;;;;12.15;6.82;;;;;;;-1.29;80.57;92785.81;5051452;28;20427;-34
2022/12/13 02:56:35;;;;;;;18.92;8.50;;;;;;;-1.31;81.00;92794.44;5052728;28;20025;-34
2022/12/13 02:59:02;;;;;;;19.08;8.68;;;;;;;-1.36;79.84;92791.69;5052830;28;20032;-34
2022/12/13 03:01:43;;;;;;;14.63;8.68;;;;;;;-1.42;80.97;92790.94;5042144;28;20083;-34
2022/12/13 03:04:31;;;;;;;13.50;7.40;;;;;;;-1.43;80.19;92789.47;5032891;28;20041;-34
2022/12/13 03:07:07;;;;;;;12.03;6.20;;;;;;;-1.43;80.77;92789.47;5046204;28;20025;-34
2022/12/13 03:09:35;;;;;;;9.23;5.75;;;;;;;-1.46;81.02;92793.88;5051227;28;20532;-34
2022/12/13 03:15:29;;;;;;;7.32;5.00;;;;;;;-1.59;81.33;92797.06;5051305;28;20551;-34
2022/12/13 03:17:58;;;;;;;14.30;6.03;;;;;;;-1.69;81.06;92790.34;5052557;28;20075;-34
2022/12/13 03:20:26;;;;;;;6.38;4.53;;;;;;;-1.79;80.41;92794.50;5051142;28;20021;-34
2022/12/13 03:22:52;;;;;;;7.00;4.90;;;;;;;-1.93;81.32;92787.31;5050976;28;20100;-34
2022/12/13 03:25:19;;;;;;;9.73;5.57;;;;;;;-1.93;80.70;92784.63;5081673;28;20405;-34
2022/12/13 03:27:45;;;;;;;11.48;7.28;;;;;;;-1.95;80.55;92794.44;5074618;28;20148;-34
2022/12/13 03:30:11;;;;;;;8.35;5.75;;;;;;;-2.10;80.92;92791.16;5082481;28;20032;-34
2022/12/13 03:32:36;;;;;;;8.15;5.50;;;;;;;-2.17;81.63;92795.06;5072284;28;20036;-34
2022/12/13 03:35:02;;;;;;;5.47;4.32;;;;;;;-2.16;82.33;92810.03;5072103;28;20066;-34
2022/12/13 03:37:28;;;;;;;9.20;5.18;;;;;;;-2.14;82.63;92802.19;5071750;28;20029;-34
2022/12/13 03:39:53;;;;;;;7.82;4.78;;;;;;;-2.18;81.87;92800.94;5071896;28;20028;-34
2022/12/13 03:42:19;;;;;;;6.85;5.00;;;;;;;-2.18;81.29;92801.66;5066649;28;20031;-34
2022/12/13 03:44:44;;;;;;;7.90;5.03;;;;;;;-2.20;81.56;92797.97;5092315;28;20055;-34
2022/12/13 03:47:09;;;;;;;8.52;5.13;;;;;;;-2.16;81.66;92810.03;5092174;28;20027;-34
2022/12/13 03:49:35;;;;;;;6.75;4.93;;;;;;;-2.21;82.08;92812.72;5091844;28;20576;-34
2022/12/13 03:52:00;;;;;;;6.20;4.72;;;;;;;-2.25;82.80;92812.22;5091777;28;20019;-34
2022/12/13 03:54:26;;;;;;;11.05;6.53;;;;;;;-2.28;82.11;92821.28;5092045;28;20074;-34
2022/12/13 03:56:51;;;;;;;8.82;5.72;;;;;;;-2.30;82.50;92813.66;5091654;28;20084;-34
2022/12/13 03:59:17;;;;;;;6.10;3.75;;;;;;;-2.25;82.63;92821.03;5091626;28;20016;-34
2022/12/13 04:01:42;;;;;;;6.82;4.25;;;;;;;-2.35;82.61;92817.03;5091887;28;20090;-34
2022/12/13 04:04:08;;;;;;;7.63;4.65;;;;;;;-2.27;82.42;92807.25;5091837;28;20043;-34
2022/12/13 04:06:33;;;;;;;6.72;4.50;;;;;;;-2.23;81.24;92815.16;5081403;28;20017;-34
2022/12/13 04:08:59;;;;;;;14.77;4.90;;;;;;;-2.30;82.31;92819.06;5071196;28;20408;-34
2022/12/13 04:14:08;;;;;;;9.35;6.53;;;;;;;-2.25;81.34;92807.53;5071341;28;20024;-34
2022/12/13 04:16:33;;;;;;;7.38;4.95;;;;;;;-2.30;80.64;92816.34;5071172;28;20025;-34
2022/12/13 04:18:59;;;;;;;10.63;6.25;;;;;;;-2.39;80.54;92819.22;5071267;28;20028;-34
2022/12/13 04:21:24;;;;;;;17.45;8.25;;;;;;;-2.46;80.81;92815.00;5071234;28;20039;-34
2022/12/13 04:23:50;;;;;;;6.57;5.15;;;;;;;-2.47;80.93;92815.50;5070739;28;20519;-34
2022/12/13 04:26:15;;;;;;;14.50;7.03;;;;;;;-2.46;80.80;92822.38;5065544;28;20024;-34
2022/12/13 04:28:41;;;;;;;30.63;12.82;;;;;;;-2.53;80.08;92826.25;5091124;28;20028;-34
2022/12/13 04:31:06;;;;;;;33.10;16.27;;;;;;;-2.49;80.08;92839.56;5073838;28;20074;-34
2022/12/13 04:33:32;;;;;;;38.92;17.40;;;;;;;-2.53;80.44;92841.72;5070636;28;20477;-36
2022/12/13 04:35:57;;;;;;;54.70;25.60;;;;;;;-2.57;80.23;92850.06;5070992;28;20032;-37
2022/12/13 04:38:23;;;;;;;27.27;12.95;;;;;;;-2.60;80.42;92863.78;5070695;28;20021;-36
2022/12/13 04:40:48;;;;;;;22.52;11.82;;;;;;;-2.62;80.09;92860.81;5070878;28;20025;-36
2022/12/13 04:43:14;;;;;;;18.13;10.30;;;;;;;-2.62;80.28;92860.81;5091077;28;20024;-36
2022/12/13 04:45:39;;;;;;;11.73;7.45;;;;;;;-2.69;79.73;92862.00;5091148;28;20054;-36
2022/12/13 04:48:05;;;;;;;5.55;3.67;;;;;;;-2.65;79.73;92859.06;5091067;28;20527;-35
2022/12/13 04:50:30;;;;;;;11.52;5.68;;;;;;;-2.67;79.30;92864.97;5090842;28;20031;-36
2022/12/13 04:52:56;;;;;;;7.43;4.97;;;;;;;-2.74;79.76;92876.19;5090588;28;20507;-35
2022/12/13 04:55:21;;;;;;;8.70;4.70;;;;;;;-2.86;79.28;92869.22;5090003;28;20024;-35
2022/12/13 04:57:47;;;;;;;7.70;3.67;;;;;;;-2.78;79.30;92872.22;5090949;28;20096;-36
2022/12/13 05:00:13;;;;;;;9.55;6.07;;;;;;;-2.81;78.68;92878.56;5090548;28;20096;-35
2022/12/13 05:02:40;;;;;;;10.70;5.78;;;;;;;-2.87;79.44;92873.13;5090899;28;20034;-35
2022/12/13 05:05:09;;;;;;;12.70;8.38;;;;;;;-2.84;79.20;92874.88;5090807;28;20087;-35
2022/12/13 05:07:35;;;;;;;15.68;8.98;;;;;;;-2.86;79.32;92880.03;5071482;28;20032;-36
2022/12/13 05:10:00;;;;;;;10.60;7.85;;;;;;;-2.86;80.04;92884.66;5070534;28;20508;-36
2022/12/13 05:12:26;;;;;;;9.52;7.00;;;;;;;-2.85;80.40;92891.53;5070517;28;20047;-35
2022/12/13 05:14:52;;;;;;;14.57;9.75;;;;;;;-2.82;80.07;92890.59;5070108;28;20546;-36
2022/12/13 05:17:18;;;;;;;12.77;7.78;;;;;;;-2.76;79.89;92884.03;5070412;28;20056;-35
2022/12/13 05:19:43;;;;;;;11.93;7.78;;;;;;;-2.79;79.46;92876.13;5070185;28;20403;-35
2022/12/13 05:22:15;;;;;;;10.88;6.88;;;;;;;-2.82;79.39;92877.09;5070191;28;20024;-35
2022/12/13 05:24:43;;;;;;;10.18;7.38;;;;;;;-2.82;80.11;92866.28;5069947;28;20040;-35
2022/12/13 05:27:08;;;;;;;10.15;5.80;;;;;;;-2.77;80.45;92869.03;5090113;28;20457;-35
2022/12/13 05:29:35;;;;;;;10.35;7.30;;;;;;;-2.74;79.36;92873.50;5085890;28;20107;-36
2022/12/13 05:32:00;;;;;;;10.63;5.93;;;;;;;-2.81;78.57;92875.88;5070261;28;20031;-36
2022/12/13 05:34:25;;;;;;;5.82;5.22;;;;;;;-2.93;79.13;92875.03;5070273;28;20029;-36
2022/12/13 05:36:51;;;;;;;5.20;4.70;;;;;;;-2.96;79.67;92884.06;5069985;28;20524;-35
2022/12/13 05:39:16;;;;;;;11.82;6.50;;;;;;;-2.94;79.77;92891.69;5070031;28;20411;-36
2022/12/13 05:41:42;;;;;;;9.18;5.25;;;;;;;-2.98;79.35;92891.91;5077619;28;20414;-35
2022/12/13 05:44:09;;;;;;;9.10;5.50;;;;;;;-3.03;79.13;92897.25;5090160;28;20024;-36
2022/12/13 05:46:35;;;;;;;5.90;4.40;;;;;;;-3.04;79.20;92895.78;5090076;28;20024;-36
2022/12/13 05:49:01;;;;;;;9.05;5.05;;;;;;;-2.98;79.18;92918.16;5090267;28;20073;-35
2022/12/13 05:51:26;;;;;;;4.95;3.75;;;;;;;-2.97;77.97;92923.13;5089977;28;20031;-35
2022/12/13 05:53:52;;;;;;;8.75;6.07;;;;;;;-2.98;77.78;92921.63;5089874;28;20468;-35
2022/12/13 05:56:17;;;;;;;7.97;4.47;;;;;;;-2.90;77.13;92921.97;5090112;28;20024;-36
2022/12/13 05:58:42;;;;;;;8.65;4.80;;;;;;;-2.91;78.07;92929.31;5090212;28;20044;-36
2022/12/13 06:01:11;;;;;;;8.40;5.03;;;;;;;-2.98;77.26;92937.81;5090218;28;20028;-35
2022/12/13 06:03:36;;;;;;;5.85;4.40;;;;;;;-3.09;78.30;92929.59;5089924;28;20496;-35
2022/12/13 06:06:06;;;;;;;8.40;4.72;;;;;;;-2.94;78.26;92932.94;5084782;28;20056;-35
2022/12/13 06:08:32;;;;;;;5.35;3.88;;;;;;;-2.94;76.90;92935.66;5073595;28;20115;-36
2022/12/13 06:10:59;;;;;;;6.78;3.92;;;;;;;-3.00;77.64;92940.25;5073470;28;20203;-35
2022/12/13 06:13:25;;;;;;;7.68;4.22;;;;;;;-2.87;77.42;92948.00;5073657;28;20021;-36
2022/12/13 06:15:50;;;;;;;6.45;4.55;;;;;;;-2.86;77.58;92952.19;5073753;28;20032;-36
2022/12/13 06:18:16;;;;;;;7.90;4.60;;;;;;;-2.78;77.92;92947.84;5073691;28;20021;-36
2022/12/13 06:20:41;;;;;;;11.32;5.20;;;;;;;-2.79;77.69;92944.41;5073342;28;20040;-36
2022/12/13 06:23:07;;;;;;;7.55;4.35;;;;;;;-2.76;78.12;92953.53;5073300;28;20040;-36
2022/12/13 06:25:32;;;;;;;8.65;5.05;;;;;;;-2.69;78.16;92961.22;5079471;28;20044;-35
2022/12/13 06:27:58;;;;;;;7.18;4.75;;;;;;;-2.60;77.48;92956.38;5093459;28;20028;-35
2022/12/13 06:30:24;;;;;;;7.68;4.45;;;;;;;-2.59;77.00;92959.84;5063977;28;20028;-36
2022/12/13 06:32:49;;;;;;;7.57;4.43;;;;;;;-2.51;77.86;92958.94;5073486;28;20028;-36
2022/12/13 06:35:15;;;;;;;12.73;5.80;;;;;;;-2.44;76.98;92955.81;5073169;28;20477;-36
2022/12/13 06:37:40;;;;;;;12.43;5.68;;;;;;;-2.40;76.91;92952.88;5073011;28;20033;-36
2022/12/13 06:40:06;;;;;;;7.72;4.82;;;;;;;-2.32;77.88;92945.84;5072990;28;20029;-36
2022/12/13 06:42:32;;;;;;;7.43;5.13;;;;;;;-2.35;77.02;92939.44;5087502;28;20097;-36
2022/12/13 06:44:57;;;;;;;16.98;8.63;;;;;;;-2.12;76.25;92945.75;5093165;28;20016;-36
2022/12/13 06:47:24;;;;;;;12.80;8.32;;;;;;;-2.19;76.72;92929.25;5092883;28;20032;-36
2022/12/13 06:49:50;;;;;;;17.77;7.53;;;;;;;-1.99;75.59;92927.19;5093112;28;20024;-36
2022/12/13 06:52:15;;;;;;;6.30;5.13;;;;;;;-1.99;76.16;92948.09;5093285;28;20381;-36
2022/12/13 06:54:42;;;;;;;35.08;18.27;;;;;;;-1.95;75.89;92938.50;5093072;28;20024;-36
2022/12/13 06:57:07;;;;;;;26.77;10.80;;;;;;;-1.93;75.43;92941.50;5092920;28;20036;-36
2022/12/13 06:59:33;;;;;;;18.08;9.40;;;;;;;-1.78;74.22;92954.88;5092995;28;20039;-36
2022/12/13 07:01:58;;;;;;;30.83;14.38;;;;;;;-1.69;74.04;92950.00;5092841;28;20106;-36
2022/12/13 07:04:24;;;;;;;11.70;6.72;;;;;;;-1.74;73.55;92953.44;5093037;28;20385;-36
2022/12/13 07:06:49;;;;;;;9.95;6.68;;;;;;;-1.68;74.06;92951.50;5080375;28;20021;-36
2022/12/13 07:09:15;;;;;;;7.03;5.35;;;;;;;-1.73;73.21;92960.31;5072684;28;20032;-36
2022/12/13 07:11:40;;;;;;;6.93;6.00;;;;;;;-1.54;73.14;92960.72;5072634;28;20528;-36
2022/12/13 07:14:06;;;;;;;11.00;7.22;;;;;;;-1.35;73.05;92967.22;5072615;28;20028;-36
2022/12/13 07:16:32;;;;;;;25.38;6.65;;;;;;;-1.26;72.56;92960.88;5072068;28;20122;-36
2022/12/13 07:18:59;;;;;;;8.65;5.25;;;;;;;-1.21;71.57;92965.56;5072528;28;20040;-36
2022/12/13 07:21:24;;;;;;;14.75;6.50;;;;;;;-1.02;70.54;92974.78;5072412;28;20033;-36
2022/12/13 07:23:50;;;;;;;6.53;3.88;;;;;;;-0.92;69.19;92976.03;5071982;28;20524;-36
2022/12/13 07:26:16;;;;;;;11.80;6.05;;;;;;;-0.92;69.45;92979.50;5085078;28;20059;-36
2022/12/13 07:28:42;;;;;;;12.13;6.97;;;;;;;-0.83;69.82;92983.97;5092351;28;20044;-36
2022/12/13 07:31:08;;;;;;;9.15;6.60;;;;;;;-0.78;69.07;92975.84;5074719;28;20029;-36
2022/12/13 07:33:34;;;;;;;8.80;4.88;;;;;;;-0.79;68.61;92979.06;5072158;28;20055;-36
2022/12/13 07:36:06;;;;;;;9.95;5.93;;;;;;;-0.77;68.09;92987.44;5071980;28;20032;-36
2022/12/13 07:38:33;;;;;;;11.05;6.15;;;;;;;-0.63;68.18;92985.75;5054094;28;20036;-36
2022/12/13 07:40:58;;;;;;;7.43;5.03;;;;;;;-0.34;68.71;92996.19;5073529;28;20161;-36
2022/12/13 07:43:24;;;;;;;7.25;5.25;;;;;;;-0.06;67.74;93002.41;5091828;28;20495;-36
2022/12/13 07:45:53;;;;;;;8.70;5.10;;;;;;;0.00;67.75;92990.31;5092261;28;20031;-34
2022/12/13 07:48:19;;;;;;;5.82;3.88;;;;;;;0.39;66.35;93011.34;5092243;28;20028;-36
2022/12/13 07:50:45;;;;;;;9.38;5.25;;;;;;;0.64;67.08;93007.63;5091895;28;20039;-36
2022/12/13 07:53:11;;;;;;;10.32;5.18;;;;;;;0.86;64.85;93007.59;5074042;28;20407;-36
2022/12/13 07:55:36;;;;;;;8.23;5.25;;;;;;;1.13;64.26;93011.47;5091963;28;20028;-36
2022/12/13 07:58:07;;;;;;;7.55;4.45;;;;;;;1.44;64.85;93013.84;5091732;28;20032;-36
2022/12/13 08:00:32;;;;;;;4.30;3.85;;;;;;;1.66;62.52;93005.59;5091670;28;20028;-36
2022/12/13 08:02:59;;;;;;;6.55;4.93;;;;;;;1.91;61.41;93007.19;5091795;28;20103;-37
2022/12/13 08:05:25;;;;;;;9.38;6.35;;;;;;;2.24;60.97;93009.72;5090903;28;20020;-37
2022/12/13 08:07:50;;;;;;;6.97;4.95;;;;;;;2.97;61.08;93012.59;5071579;28;20020;-37
2022/12/13 08:10:16;;;;;;;7.22;5.03;;;;;;;3.40;59.24;93012.66;5071296;28;20419;-37
2022/12/13 08:12:41;;;;;;;8.85;5.70;;;;;;;3.79;58.35;93010.94;5071153;28;20466;-37
2022/12/13 08:15:07;;;;;;;9.35;5.95;;;;;;;4.61;57.70;93019.22;5071374;28;20029;-34
2022/12/13 08:17:33;;;;;;;8.90;6.40;;;;;;;5.44;54.29;93017.06;5070863;28;20043;-34
2022/12/13 08:19:58;;;;;;;10.18;5.97;;;;;;;6.17;52.00;93013.69;5071327;28;20028;-34
2022/12/13 08:22:24;;;;;;;10.13;6.85;;;;;;;6.40;48.81;92998.22;5071289;28;20523;-35
2022/12/13 08:24:49;;;;;;;12.85;8.10;;;;;;;6.76;49.55;93012.81;5053620;28;20431;-34
2022/12/13 08:27:14;;;;;;;11.95;7.93;;;;;;;6.72;49.67;93012.44;5091114;28;20487;-34
2022/12/13 08:29:40;;;;;;;9.50;7.15;;;;;;;6.22;48.61;92999.84;5084971;28;20032;-34
2022/12/13 08:32:08;;;;;;;14.15;8.02;;;;;;;5.59;49.92;93016.56;5070870;28;20028;-34
2022/12/13 08:34:34;;;;;;;9.47;6.63;;;;;;;5.73;51.72;93016.03;5070990;28;20020;-34
2022/12/13 08:36:59;;;;;;;10.05;7.00;;;;;;;5.93;51.91;93009.91;5052915;28;20104;-34
2022/12/13 08:39:25;;;;;;;15.20;8.38;;;;;;;6.36;49.32;93006.03;5083576;28;20052;-34
2022/12/13 08:41:50;;;;;;;12.68;7.97;;;;;;;6.99;49.18;93005.56;5081914;28;20467;-35
2022/12/13 08:44:16;;;;;;;11.27;6.90;;;;;;;7.29;48.88;93003.06;5070648;28;20024;-34
2022/12/13 08:46:41;;;;;;;9.23;6.38;;;;;;;7.00;46.19;92998.78;5070858;28;20032;-34
2022/12/13 08:49:06;;;;;;;9.15;6.40;;;;;;;7.41;48.04;92998.72;5070517;28;20025;-35
2022/12/13 08:51:32;;;;;;;9.38;6.43;;;;;;;8.27;45.73;92992.59;5070719;28;20040;-35
2022/12/13 08:53:57;;;;;;;9.27;7.00;;;;;;;8.81;44.10;92994.22;5070454;28;20023;-35
2022/12/13 08:56:23;;;;;;;12.20;9.90;;;;;;;9.57;42.85;92994.97;5070716;28;20036;-35
2022/12/13 08:58:50;;;;;;;10.98;6.68;;;;;;;9.89;40.04;92999.88;5070673;28;20036;-35
2022/12/13 09:01:16;;;;;;;8.23;6.13;;;;;;;10.06;41.28;92993.75;5070628;28;20027;-34
2022/12/13 09:03:41;;;;;;;7.90;5.75;;;;;;;10.87;39.38;92996.00;5070412;28;20028;-35
2022/12/13 09:06:08;;;;;;;7.60;6.13;;;;;;;11.97;37.55;92997.00;5076980;28;20035;-35
2022/12/13 09:08:33;;;;;;;9.52;6.38;;;;;;;12.47;36.54;92986.47;5090467;28;20032;-35
2022/12/13 09:10:59;;;;;;;14.00;6.25;;;;;;;13.07;34.92;92986.97;5090726;28;20039;-35
2022/12/13 09:13:26;;;;;;;10.07;7.10;;;;;;;13.47;33.94;92984.53;5090345;28;20024;-35
2022/12/13 09:15:52;;;;;;;10.95;5.82;;;;;;;14.01;34.07;92977.47;5090282;28;20067;-35
2022/12/13 09:18:17;;;;;;;7.45;5.63;;;;;;;14.30;32.83;92978.28;5090433;28;20040;-35
2022/12/13 09:20:42;;;;;;;6.28;4.93;;;;;;;14.24;31.69;92968.75;5090645;28;20039;-35
2022/12/13 09:23:09;;;;;;;7.97;6.13;;;;;;;14.67;31.94;92962.16;5090625;28;20020;-35
2022/12/13 09:25:34;;;;;;;6.68;5.57;;;;;;;14.40;30.82;92959.56;5089671;28;20043;-35
2022/12/13 09:28:02;;;;;;;8.77;5.93;;;;;;;14.41;30.74;92952.69;5090544;28;20082;-35
2022/12/13 09:30:28;;;;;;;9.88;5.97;;;;;;;14.28;31.17;92947.56;5078508;28;20030;-35
2022/12/13 09:32:55;;;;;;;8.95;7.22;;;;;;;15.01;32.26;92949.94;5069985;28;20111;-35
2022/12/13 09:35:20;;;;;;;8.10;5.90;;;;;;;15.26;29.79;92941.22;5079886;28;20397;-35
2022/12/13 09:37:46;;;;;;;8.00;6.38;;;;;;;15.47;29.65;92950.38;5090186;28;20035;-35
2022/12/13 09:40:19;;;;;;;8.27;6.25;;;;;;;15.72;29.78;92947.19;5091117;28;20118;-35
2022/12/13 09:42:48;;;;;;;7.47;5.78;;;;;;;16.00;29.81;92937.94;5059971;28;20029;-35
2022/12/13 09:45:14;;;;;;;8.00;5.60;;;;;;;15.61;30.31;92942.28;5074292;28;20412;-35
2022/12/13 09:47:41;;;;;;;7.25;5.30;;;;;;;15.35;28.61;92937.69;5056326;28;20017;-35
2022/12/13 09:50:11;;;;;;;8.77;6.95;;;;;;;15.37;30.08;92933.00;5074070;28;20481;-35
2022/12/13 09:52:38;;;;;;;7.13;5.57;;;;;;;15.35;28.99;92929.34;5073993;28;20024;-35
2022/12/13 09:55:21;;;;;;;7.72;5.68;;;;;;;15.63;30.33;92923.66;5073735;28;20020;-35
2022/12/13 09:57:47;;;;;;;9.15;6.35;;;;;;;15.24;30.10;92932.75;5056404;28;20056;-35
2022/12/13 10:00:22;;;;;;;6.05;4.80;;;;;;;14.04;29.84;92917.31;5074025;28;20530;-35
2022/12/13 10:02:50;;;;;;;7.45;5.57;;;;;;;13.33;32.44;92917.66;5073819;28;20052;-35
2022/12/13 10:05:34;;;;;;;12.27;9.48;;;;;;;12.06;34.94;92918.84;5073578;28;20485;-34
2022/12/13 10:08:14;;;;;;;8.30;7.05;;;;;;;12.21;35.46;92917.22;5073989;28;20029;-34
2022/12/13 10:10:41;;;;;;;7.35;5.85;;;;;;;12.41;34.99;92913.97;5072557;28;20028;-35
2022/12/13 10:13:19;;;;;;;9.55;7.15;;;;;;;12.65;34.53;92904.78;5073790;28;20025;-35
2022/12/13 10:15:51;;;;;;;8.73;6.70;;;;;;;13.05;34.42;92904.44;5073350;28;20032;-35
2022/12/13 10:18:26;;;;;;;8.65;6.82;;;;;;;13.09;34.10;92913.03;5073718;28;20029;-35
2022/12/13 10:20:52;;;;;;;7.80;6.00;;;;;;;13.41;33.40;92909.94;5055572;28;20435;-35
2022/12/13 10:23:18;;;;;;;10.93;6.57;;;;;;;14.06;32.86;92915.41;5073240;28;20093;-35
2022/12/13 10:25:55;;;;;;;7.35;5.53;;;;;;;13.67;32.26;92922.97;5072790;28;20082;-35
2022/12/13 10:28:28;;;;;;;9.60;6.80;;;;;;;13.86;32.56;92913.94;5055868;28;20040;-35
2022/12/13 10:30:54;;;;;;;8.75;6.72;;;;;;;13.73;33.17;92919.19;5070777;28;20023;-35
2022/12/13 10:33:30;;;;;;;21.50;9.25;;;;;;;14.05;33.45;92910.44;5075277;28;20127;-35
2022/12/13 10:36:03;;;;;;;6.72;6.03;;;;;;;13.89;32.63;92903.72;5075159;28;20031;-35
2022/12/13 10:38:30;;;;;;;11.38;8.02;;;;;;;14.00;33.62;92901.09;5093321;28;20420;-35
2022/12/13 10:40:56;;;;;;;9.13;6.75;;;;;;;14.22;33.53;92885.31;5091876;28;20020;-35
2022/12/13 10:43:25;;;;;;;7.07;5.85;;;;;;;14.36;30.77;92869.66;5073201;28;20097;-35
2022/12/13 10:45:59;;;;;;;7.65;6.15;;;;;;;14.93;31.11;92882.66;5072988;28;20027;-35
2022/12/13 10:48:47;;;;;;;11.30;8.73;;;;;;;15.13;30.14;92861.81;5073110;28;20024;-35
2022/12/13 10:51:16;;;;;;;8.80;6.38;;;;;;;14.95;29.97;92866.88;5054889;28;20557;-35
2022/12/13 10:53:46;;;;;;;16.30;5.50;;;;;;;15.18;30.08;92855.22;5054776;28;20024;-35
2022/12/13 10:56:11;;;;;;;10.13;7.78;;;;;;;14.89;31.69;92860.91;5072699;28;20051;-35
2022/12/13 10:58:43;;;;;;;7.25;6.53;;;;;;;14.81;31.41;92871.44;5072658;28;20021;-35
2022/12/13 11:01:25;;;;;;;11.98;6.47;;;;;;;15.40;30.58;92861.53;5054838;28;20024;-35
2022/12/13 11:04:02;;;;;;;13.18;10.40;;;;;;;15.43;29.88;92868.69;5055535;28;20110;-35
2022/12/13 11:06:41;;;;;;;14.40;6.70;;;;;;;14.96;31.80;92876.69;5082057;28;20032;-35
2022/12/13 11:09:25;;;;;;;10.48;8.15;;;;;;;13.64;32.40;92874.19;5093017;28;20414;-35
2022/12/13 11:11:51;;;;;;;8.45;6.93;;;;;;;12.82;34.06;92859.69;5092679;28;20619;-34
2022/12/13 11:14:19;;;;;;;8.65;6.75;;;;;;;12.57;35.03;92857.09;5074695;28;20024;-34
2022/12/13 11:16:51;;;;;;;10.82;6.97;;;;;;;12.44;36.66;92859.50;5092514;28;20500;-35
2022/12/13 11:19:20;;;;;;;10.57;8.13;;;;;;;12.76;36.07;92853.69;5092778;28;20107;-34
2022/12/13 11:21:50;;;;;;;7.78;6.55;;;;;;;12.88;36.07;92857.38;5092497;28;20058;-34
2022/12/13 11:24:24;;;;;;;12.25;7.35;;;;;;;13.13;35.42;92859.94;5074188;28;20047;-34
2022/12/13 11:26:58;;;;;;;9.50;7.57;;;;;;;13.11;35.41;92857.75;5072626;28;20064;-34
2022/12/13 11:29:48;;;;;;;10.32;7.07;;;;;;;12.76;35.56;92856.44;5074995;28;20107;-34
2022/12/13 11:32:25;;;;;;;8.38;6.85;;;;;;;12.78;35.20;92853.81;5092545;28;20522;-34
2022/12/13 11:35:15;;;;;;;10.05;7.30;;;;;;;12.60;35.76;92858.00;5074485;28;20454;-34
2022/12/13 11:37:45;;;;;;;8.63;6.82;;;;;;;12.39;36.49;92846.69;5092457;28;20043;-34
2022/12/13 11:40:20;;;;;;;10.65;7.90;;;;;;;12.37;36.04;92838.94;5074170;28;20107;-34